Latest Coastal Weather Observations for Gabo Island

IDV60701

Issued at 8:42 am EDT Wednesday 29 March 2017 (issued every 10 minutes, with the page automatically refreshed every 10 minutes)

About coastal observations | Map of coastal stations | Coastal observations for VIC | Marine services | Other Formats
Station Details ID: 084016 Name: GABO ISLAND LIGHTHOUSE Lat: -37.57 Lon: 149.92 Height: 15.2 m
Data from the previous 72 hours. | See also: Recent months at Gabo Island
Date/Time
EDT
Temp
°C
Wind Pressure Rain since
9am
mm
Weather Cloud Vis
km
Sea
Height
m
Swell
Dir  Spd
kts
Gust
kts
hPa Trend Height
m
Period
s
Dir
29/08:30am 19.5 N 7 12 1009.8 - 0.0 - - - - - - -
29/08:00am 18.4 NNE 9 11 1009.6 - 0.0 - - - - - - -
29/07:30am 17.4 NNE 14 16 1009.4 - 0.0 - - - - - - -
29/07:00am 16.8 NNE 8 11 1009.6 - 0.0 - - - - - - -
29/06:30am 16.8 NE 10 11 1009.6 - 0.0 - - - - - - -
29/06:00am 16.7 NNE 9 10 1009.4 - 0.0 - - - - - - -
29/05:30am 16.3 NNE 7 9 1009.6 - 0.0 - - - - - - -
29/05:00am 14.4 NNE 4 5 1009.8 - 0.0 - - - - - - -
29/04:30am 15.2 N 3 3 1010.1 - 0.0 - - - - - - -
29/04:00am 15.5 NE 3 4 1010.5 - 0.0 - - - - - - -
29/03:30am 15.8 CALM 0 0 1010.7 - 0.0 - - - - - - -
29/03:00am 15.8 CALM 0 0 1011.1 - 0.0 Fine Partly cloudy 30 <0.1 0.3 9 SE
29/02:30am 15.7 NE 2 4 1011.7 - 0.0 - - - - - - -
29/02:00am 15.8 CALM 0 0 1012.1 - 0.0 - - - - - - -
29/01:30am 15.2 WNW 3 5 1012.3 - 0.0 - - - - - - -
29/01:00am 15.4 W 5 5 1012.8 - 0.0 - - - - - - -
29/12:30am 15.6 CALM 0 1 1013.1 - 0.0 - - - - - - -
29/12:00am 15.8 CALM 0 0 1013.0 - 0.0 - - - - - - -
 
Date/Time
EDT
Temp
°C
Wind Pressure Rain since
9am
mm
Weather Cloud Vis
km
Sea
Height
m
Swell
Dir  Spd
kts
Gust
kts
hPa Trend Height
m
Period
s
Dir
28/11:30pm 14.7 CALM 0 0 1013.2 - 0.0 - - - - - - -
28/11:00pm 15.4 CALM 0 0 1013.4 - 0.0 - - - - - - -
28/10:30pm 15.1 CALM 0 0 1013.5 - 0.0 - - - - - - -
28/10:00pm 14.8 NNE 3 3 1013.4 - 0.0 - - - - - - -
28/09:30pm 14.3 NNE 4 5 1013.4 - 0.0 - - - - - - -
28/09:00pm 14.7 NNE 4 5 1013.4 - 0.0 Fine Clear 40 <0.5 0.5 7 S
28/08:30pm 15.3 NE 4 4 1013.3 - 0.0 - - - - - - -
28/08:00pm 15.7 NE 4 5 1013.0 - 0.0 - - - - - - -
28/07:30pm 16.0 ENE 5 6 1012.8 - 0.0 - - - - - - -
28/07:00pm 16.6 ENE 5 6 1013.0 - 0.0 - - - - - - -
28/06:30pm 17.4 ENE 4 4 1012.9 - 0.0 - - - - - - -
28/06:00pm 18.2 ENE 4 5 1012.8 - 0.0 - - - - - - -
28/05:30pm 19.1 ESE 3 4 1012.8 - 0.0 - - - - - - -
28/05:00pm 19.5 SE 4 5 1012.7 - 0.0 - - - - - - -
28/04:30pm 19.7 S 5 6 1012.7 - 0.0 - - - - - - -
28/04:00pm 19.3 S 6 7 1012.9 - 0.0 - - - - - - -
28/03:30pm 20.2 S 7 8 1013.1 - 0.0 - - - - - - -
28/03:00pm 20.4 SSW 9 10 1013.4 - 0.0 Fine Partly cloudy 40 1 0.5 7 S
28/02:30pm 19.5 SSW 9 11 1013.8 - 0.0 - - - - - - -
28/02:00pm 19.4 SSW 8 9 1014.0 - 0.0 - - - - - - -
28/01:30pm 19.2 SSW 10 11 1014.4 - 0.0 - - - - - - -
28/01:00pm 19.4 SSW 7 11 1014.5 - 0.0 - - - - - - -
28/12:30pm 20.2 SW 6 8 1014.8 - 0.0 - - - - - - -
28/12:00pm 20.7 W 6 8 1014.9 - 0.0 - - - - - - -
28/11:30am 19.7 W 6 7 1015.0 - 0.0 - - - - - - -
28/11:00am 19.3 W 8 9 1015.1 - 0.0 - - - - - - -
28/10:30am 18.5 WNW 7 9 1015.2 - 0.0 - - - - - - -
28/10:00am 18.3 W 7 9 1014.9 - 0.0 - - - - - - -
28/09:30am 17.2 W 7 9 1014.6 - 0.0 - - - - - - -
28/09:00am 17.1 W 7 9 1014.2 - 1.4 Fine Mostly clear 50 <0.5 0.8 7 SW
28/08:30am 16.6 WNW 6 8 1014.0 - 1.4 - - - - - - -
28/08:00am 15.8 NW 7 9 1013.9 - 1.4 - - - - - - -
28/07:30am 13.8 N 6 7 1013.7 - 1.4 - - - - - - -
28/07:00am 14.1 NW 7 9 1013.4 - 1.4 - - - - - - -
28/06:30am 14.0 NW 6 7 1013.3 - 1.4 - - - - - - -
28/06:00am 14.6 WNW 6 7 1013.0 - 1.4 - - - - - - -
28/05:30am 14.3 WNW 5 7 1013.0 - 1.4 - - - - - - -
28/05:00am 14.5 NW 5 7 1012.8 - 1.4 - - - - - - -
28/04:30am 15.3 W 12 16 1012.9 - 1.4 - - - - - - -
28/04:00am 15.4 W 13 15 1013.0 - 1.4 - - - - - - -
28/03:30am 15.3 W 12 15 1013.3 - 1.4 - - - - - - -
28/03:00am 15.4 W 14 17 1013.0 - 1.4 Fine Mostly clear 30 2 1.5 7 SW
28/02:30am 15.4 W 14 18 1013.4 - 1.4 - - - - - - -
28/02:00am 15.6 W 16 19 1013.3 - 1.4 - - - - - - -
28/01:30am 15.4 W 14 17 1013.2 - 1.4 - - - - - - -
28/01:00am 15.5 W 16 19 1013.3 - 1.4 - - - - - - -
28/12:30am 15.6 W 17 19 1013.4 - 1.4 - - - - - - -
28/12:00am 15.8 W 16 20 1012.9 - 1.4 - - - - - - -
 
Date/Time
EDT
Temp
°C
Wind Pressure Rain since
9am
mm
Weather Cloud Vis
km
Sea
Height
m
Swell
Dir  Spd
kts
Gust
kts
hPa Trend Height
m
Period
s
Dir
27/11:30pm 15.6 W 16 19 1012.9 - 1.4 - - - - - - -
27/11:00pm 15.8 W 15 19 1012.8 - 1.4 - - - - - - -
27/10:30pm 15.8 W 11 15 1012.9 - 1.4 - - - - - - -
27/10:00pm 15.7 WSW 13 20 1013.2 - 1.4 - - - - - - -
27/09:30pm 15.8 WSW 18 21 1013.1 - 1.4 - - - - - - -
27/09:00pm 16.0 WSW 23 30 1013.3 - 1.2 Showers Cloudy 3 3 1.0 8 NE
27/08:30pm 16.4 WSW 26 33 1012.4 - 0.4 - - - - - - -
27/08:20pm 16.6 WSW 29 39 1012.1 - 0.2 - - - - - - -
27/08:00pm 16.6 SW 33 39 1011.4 - 0.2 - - - - - - -
27/07:30pm 18.6 SW 32 39 1011.1 - 0.0 - - - - - - -
27/07:25pm 19.0 WSW 29 39 1011.6 - 0.0 - - - - - - -
27/07:00pm 19.8 WSW 33 40 1010.7 - 0.0 - - - - - - -
27/06:30pm 21.3 WSW 37 48 1008.9 - 0.0 - - - - - - -
27/06:21pm 21.4 WSW 36 47 1008.1 - 0.0 - - - - - - -
27/06:09pm 22.3 SW 29 39 1007.7 - 0.0 - - - - - - -
27/06:05pm 22.9 SW 31 39 1007.3 - 0.0 - - - - - - -
27/06:03pm 24.2 W 22 35 1007.1 - 0.0 - - - - - - -
27/06:02pm 23.8 WNW 20 26 1007.1 - 0.0 - - - - - - -
27/06:00pm 23.0 NNE 18 23 1003.9 - 0.0 - - - - - - -
27/05:30pm 22.2 NNE 23 27 1003.2 - 0.0 - - - - - - -
27/05:00pm 22.6 NNE 23 27 1003.3 - 0.0 - - - - - - -
27/04:30pm 23.3 NNE 23 27 1003.9 - 0.0 - - - - - - -
27/04:00pm 23.0 NNE 24 27 1004.2 - 0.0 - - - - - - -
27/03:30pm 23.1 NNE 24 29 1004.3 - 0.0 - - - - - - -
27/03:00pm 22.7 NNE 20 24 1004.9 - 0.0 Haze Partly cloudy 10 1 1.0 7 NE
27/02:30pm 23.2 NNE 22 25 1005.1 - 0.0 - - - - - - -
27/02:00pm 22.9 NNE 21 25 1005.8 - 0.0 - - - - - - -
27/01:30pm 23.5 NNE 20 23 1006.8 - 0.0 - - - - - - -
27/01:00pm 23.3 NNE 22 26 1007.1 - 0.0 - - - - - - -
27/12:30pm 23.5 NNE 24 28 1007.4 - 0.0 - - - - - - -
27/12:00pm 23.3 NNE 23 27 1008.0 - 0.0 - - - - - - -
27/11:30am 22.9 NNE 23 27 1008.7 - 0.0 - - - - - - -
27/11:00am 22.4 NNE 22 25 1009.2 - 0.0 - - - - - - -
27/10:30am 22.3 NNE 22 28 1009.5 - 0.0 - - - - - - -
27/10:00am 22.1 NNE 21 24 1010.2 - 0.0 - - - - - - -
27/09:30am 21.7 NNE 19 23 1010.5 - 0.0 - - - - - - -
27/09:00am 21.8 NNE 22 28 1010.4 - 0.0 Fine Clear 20 1 0.5 9 E
27/08:30am 20.7 NNE 19 23 1010.8 - 0.0 - - - - - - -
27/08:00am 20.0 NNE 20 24 1010.8 - 0.0 - - - - - - -
27/07:30am 19.8 NNE 20 25 1010.8 - 0.0 - - - - - - -
27/07:00am 19.9 NNE 22 26 1010.4 - 0.0 - - - - - - -
27/06:30am 20.5 NNE 23 29 1010.6 - 0.0 - - - - - - -
27/06:00am 19.9 NNE 22 27 1010.7 - 0.0 - - - - - - -
27/05:30am 19.8 NNE 22 26 1010.7 - 0.0 - - - - - - -
27/05:00am 20.1 NNE 22 27 1010.9 - 0.0 - - - - - - -
27/04:30am 20.0 NNE 19 24 1011.4 - 0.0 - - - - - - -
27/04:00am 20.1 NNE 16 20 1011.9 - 0.0 - - - - - - -
27/03:30am 20.0 NNE 17 20 1012.2 - 0.0 - - - - - - -
27/03:00am 20.0 NNE 15 19 1012.5 - 0.0 - - - - - - -
27/02:30am 19.8 NNE 9 14 1013.1 - 0.0 - - - - - - -
27/02:00am 19.7 NE 12 14 1013.6 - 0.0 - - - - - - -
27/01:30am 19.8 NNE 13 15 1013.9 - 0.0 - - - - - - -
27/01:00am 19.9 NNE 12 14 1014.4 - 0.0 - - - - - - -
27/12:30am 19.9 NNE 13 16 1014.6 - 0.0 - - - - - - -
27/12:00am 19.8 NNE 12 13 1014.8 - 0.0 - - - - - - -
 
Date/Time
EDT
Temp
°C
Wind Pressure Rain since
9am
mm
Weather Cloud Vis
km
Sea
Height
m
Swell
Dir  Spd
kts
Gust
kts
hPa Trend Height
m
Period
s
Dir
26/11:30pm 19.8 NNE 13 15 1015.1 - 0.0 - - - - - - -
26/11:00pm 19.7 NNE 12 13 1015.3 - 0.0 - - - - - - -
26/10:30pm 19.6 NNE 13 14 1015.5 - 0.0 - - - - - - -
26/10:00pm 19.7 NNE 14 15 1015.5 - 0.0 - - - - - - -
26/09:30pm 19.6 NNE 13 15 1015.4 - 0.0 - - - - - - -
26/09:00pm 19.6 NNE 12 14 1015.1 - 0.0 Fine Clear 30 <0.5 0.5 9 E
26/08:30pm 19.6 NNE 11 14 1015.0 - 0.0 - - - - - - -
26/08:00pm 19.7 NNE 10 12 1014.8 - 0.0 - - - - - - -
26/07:30pm 19.8 NNE 9 10 1014.5 - 0.0 - - - - - - -
26/07:00pm 20.4 NE 10 11 1014.3 - 0.0 - - - - - - -
26/06:30pm 20.8 NE 9 11 1014.3 - 0.0 - - - - - - -
26/06:00pm 21.2 NNE 8 9 1014.3 - 0.0 - - - - - - -
26/05:30pm 21.6 NNE 7 8 1014.2 - 0.0 - - - - - - -
26/05:00pm 21.9 NNE 5 6 1014.2 - 0.0 - - - - - - -
26/04:30pm 22.0 NE 4 5 1014.1 - 0.0 - - - - - - -
26/04:00pm 22.1 E 4 5 1014.1 - 0.0 - - - - - - -
26/03:30pm 21.8 E 4 5 1014.4 - 0.0 - - - - - - -
26/03:00pm 21.6 S 4 5 1014.6 - 0.0 Fine Mostly clear 40 <0.1 0.5 9 E
26/02:30pm 21.9 SSW 6 7 1014.8 - 0.0 - - - - - - -
26/02:00pm 21.9 SSW 4 6 1015.0 - 0.0 - - - - - - -
26/01:30pm 21.6 SW 5 6 1015.2 - 0.0 - - - - - - -
26/01:00pm 21.9 S 5 6 1015.5 - 0.0 - - - - - - -
26/12:30pm 22.2 S 5 6 1015.7 - 0.0 - - - - - - -
26/12:00pm 21.7 S 4 6 1015.8 - 0.0 - - - - - - -
26/11:30am 21.6 SW 5 6 1016.0 - 0.0 - - - - - - -
26/11:00am 22.5 W 7 9 1016.1 - 0.0 - - - - - - -
26/10:30am 21.9 W 7 9 1015.7 - 0.0 - - - - - - -
26/10:00am 19.9 W 8 9 1015.6 - 0.0 - - - - - - -
26/09:30am 18.5 W 8 9 1015.4 - 0.0 - - - - - - -
26/09:00am 18.3 W 7 9 1015.0 - 0.0 Fine Mostly cloudy 30 <0.5 0.5 9 SE

Other Formats:

Comma delimited format used in spreadsheet applications
http://www.bom.gov.au/fwo/IDV60701/IDV60701.94933.axf

JavaScript Object Notation format (JSON) in row-major order
http://www.bom.gov.au/fwo/IDV60701/IDV60701.94933.json